Time;durP1;ratioP1;P1;durP2;ratioP2;P2;SDS_P1;SDS_P2;PMS_P1;PMS_P2;Temp;Humidity;BMP_temperature;BMP_pressure;BME280_temperature;BME280_humidity;BME280_pressure;Samples;Min_cycle;Max_cycle;Signal;HPM_P1;HPM_P2
2021/07/10 00:00:20;;;;;;;;;;;25.60;54.50;;;;;;5132508;27;20481;-59
2021/07/10 00:02:47;;;;;;;;;;;25.60;54.40;;;;;;5132713;27;19924;-59
2021/07/10 00:05:15;;;;;;;;;;;25.60;54.50;;;;;;5117271;28;19924;-59
2021/07/10 00:07:43;;;;;;;;;;;25.60;54.50;;;;;;5128425;27;20397;-59
2021/07/10 00:10:12;;;;;;;;;;;25.60;54.50;;;;;;5132104;27;19930;-59
2021/07/10 00:12:39;;;;;;;;;;;25.60;54.50;;;;;;5132660;28;20030;-59
2021/07/10 00:15:07;;;;;;;;;;;25.60;54.40;;;;;;5130948;28;19924;-59
2021/07/10 00:17:34;;;;;;;;;;;25.60;54.40;;;;;;5132153;28;19931;-59
2021/07/10 00:20:01;;;;;;;;;;;25.60;54.50;;;;;;5129674;28;19923;-59
2021/07/10 00:22:28;;;;;;;;;;;25.60;54.50;;;;;;5130635;28;19959;-59
2021/07/10 00:24:55;;;;;;;;;;;25.60;54.50;;;;;;5131093;28;19970;-59
2021/07/10 00:27:22;;;;;;;;;;;25.60;54.50;;;;;;5130902;28;19967;-59
2021/07/10 00:29:49;;;;;;;;;;;25.60;54.50;;;;;;5130719;28;20024;-58
2021/07/10 00:32:16;;;;;;;;;;;25.60;54.50;;;;;;5129802;28;19968;-59
2021/07/10 00:34:43;;;;;;;;;;;25.60;54.40;;;;;;5131291;28;20006;-59
2021/07/10 00:37:10;;;;;;;;;;;25.60;54.50;;;;;;5118903;28;19972;-59
2021/07/10 00:39:37;;;;;;;;;;;25.50;54.40;;;;;;5132348;28;19971;-59
2021/07/10 00:42:04;;;;;;;;;;;25.50;54.40;;;;;;5133454;27;20033;-59
2021/07/10 00:44:30;;;;;;;;;;;25.50;54.40;;;;;;5135683;27;20010;-59
2021/07/10 00:46:57;;;;;;;;;;;25.50;54.40;;;;;;5135298;27;20010;-59
2021/07/10 00:49:24;;;;;;;;;;;25.50;54.40;;;;;;5118155;27;20002;-59
2021/07/10 00:51:51;;;;;;;;;;;25.50;54.50;;;;;;5136060;27;19924;-59
2021/07/10 00:54:19;;;;;;;;;;;25.50;54.40;;;;;;5136832;27;19988;-58
2021/07/10 00:56:48;;;;;;;;;;;25.50;54.50;;;;;;5119391;27;19924;-58
2021/07/10 00:59:16;;;;;;;;;;;25.40;54.40;;;;;;5118815;27;20425;-59
2021/07/10 01:01:43;;;;;;;;;;;25.40;54.40;;;;;;5133975;27;19923;-59
2021/07/10 01:04:10;;;;;;;;;;;25.50;54.30;;;;;;5120538;27;19996;-59
2021/07/10 01:06:39;;;;;;;;;;;25.40;54.30;;;;;;5117873;27;20320;-59
2021/07/10 01:09:06;;;;;;;;;;;25.40;54.20;;;;;;5132843;27;19927;-59
2021/07/10 01:11:33;;;;;;;;;;;25.40;54.30;;;;;;5135804;27;20007;-58
2021/07/10 01:14:01;;;;;;;;;;;25.40;54.20;;;;;;5136736;27;19924;-59
2021/07/10 01:16:28;;;;;;;;;;;25.40;54.20;;;;;;5132983;27;19968;-58
2021/07/10 01:18:55;;;;;;;;;;;25.40;54.20;;;;;;5118264;27;19928;-59
2021/07/10 01:21:22;;;;;;;;;;;25.40;54.20;;;;;;5134238;27;19924;-59
2021/07/10 01:23:51;;;;;;;;;;;25.40;54.20;;;;;;5132902;27;20014;-59
2021/07/10 01:26:19;;;;;;;;;;;25.40;54.20;;;;;;5135195;27;20333;-59
2021/07/10 01:28:46;;;;;;;;;;;25.40;54.20;;;;;;5133896;27;20018;-59
2021/07/10 01:31:13;;;;;;;;;;;25.30;54.10;;;;;;5133112;27;20271;-58
2021/07/10 01:33:41;;;;;;;;;;;25.30;54.10;;;;;;5136544;27;19955;-59
2021/07/10 01:36:07;;;;;;;;;;;25.30;54.10;;;;;;5134747;27;19923;-59
2021/07/10 01:38:35;;;;;;;;;;;25.30;54.10;;;;;;5134129;27;19984;-59
2021/07/10 01:41:02;;;;;;;;;;;25.30;54.30;;;;;;5119943;27;19934;-59
2021/07/10 01:43:29;;;;;;;;;;;25.30;54.10;;;;;;5135332;27;19976;-59
2021/07/10 01:45:55;;;;;;;;;;;25.30;54.10;;;;;;5134787;27;20391;-59
2021/07/10 01:48:23;;;;;;;;;;;25.30;54.00;;;;;;5134867;27;20325;-59
2021/07/10 01:50:50;;;;;;;;;;;25.30;54.00;;;;;;5121863;27;19923;-58
2021/07/10 01:53:17;;;;;;;;;;;25.30;54.00;;;;;;5134225;27;19946;-58
2021/07/10 01:55:44;;;;;;;;;;;25.30;54.00;;;;;;5135125;27;19972;-58
2021/07/10 01:58:11;;;;;;;;;;;25.30;54.00;;;;;;5135087;27;20339;-58
2021/07/10 02:00:40;;;;;;;;;;;25.30;54.00;;;;;;5133870;27;19951;-58
2021/07/10 02:03:07;;;;;;;;;;;25.30;54.00;;;;;;5133436;27;19923;-59
2021/07/10 02:05:34;;;;;;;;;;;25.30;54.00;;;;;;5133438;27;20008;-58
2021/07/10 02:08:02;;;;;;;;;;;25.30;53.90;;;;;;5134573;27;20432;-58
2021/07/10 02:10:30;;;;;;;;;;;25.30;54.00;;;;;;5132130;27;19923;-58
2021/07/10 02:13:02;;;;;;;;;;;25.30;54.00;;;;;;5136165;27;20347;-59
2021/07/10 02:15:29;;;;;;;;;;;25.20;54.00;;;;;;5133696;27;20405;-59
2021/07/10 02:17:57;;;;;;;;;;;25.20;54.00;;;;;;5132115;27;19935;-59
2021/07/10 02:20:25;;;;;;;;;;;25.20;54.00;;;;;;5132891;27;19959;-58
2021/07/10 02:22:52;;;;;;;;;;;25.20;54.00;;;;;;5133181;27;19993;-59
2021/07/10 02:25:21;;;;;;;;;;;25.20;54.00;;;;;;5133091;27;19973;-59
2021/07/10 02:27:48;;;;;;;;;;;25.20;54.00;;;;;;5128032;27;19924;-58
2021/07/10 02:30:17;;;;;;;;;;;25.20;54.10;;;;;;5116082;27;19974;-58
2021/07/10 02:32:45;;;;;;;;;;;25.20;54.10;;;;;;5120691;27;19982;-59
2021/07/10 02:35:12;;;;;;;;;;;25.20;54.00;;;;;;5129969;27;19959;-59
2021/07/10 02:37:39;;;;;;;;;;;25.20;54.00;;;;;;5116643;27;19971;-58
2021/07/10 02:40:08;;;;;;;;;;;25.10;54.00;;;;;;5117416;27;20379;-59
2021/07/10 02:42:35;;;;;;;;;;;25.10;53.90;;;;;;5133873;27;19923;-58
2021/07/10 02:45:03;;;;;;;;;;;25.10;53.90;;;;;;5134277;27;20275;-59
2021/07/10 02:47:30;;;;;;;;;;;25.10;54.00;;;;;;5132368;27;19973;-58
2021/07/10 02:49:58;;;;;;;;;;;25.10;53.90;;;;;;5114893;28;19969;-58
2021/07/10 02:52:25;;;;;;;;;;;25.10;53.90;;;;;;5134020;27;19923;-59
2021/07/10 02:54:52;;;;;;;;;;;25.10;53.90;;;;;;5115332;27;19924;-59
2021/07/10 02:57:19;;;;;;;;;;;25.10;53.90;;;;;;5135090;27;19923;-59
2021/07/10 02:59:46;;;;;;;;;;;25.10;53.90;;;;;;5132792;27;19923;-58
2021/07/10 03:02:13;;;;;;;;;;;25.10;53.90;;;;;;5130856;27;20367;-59
2021/07/10 03:04:41;;;;;;;;;;;25.10;53.80;;;;;;5132518;27;19927;-58
2021/07/10 03:07:08;;;;;;;;;;;25.10;53.80;;;;;;5130828;27;19973;-58
2021/07/10 03:09:35;;;;;;;;;;;25.10;53.80;;;;;;5133113;27;19923;-58
2021/07/10 03:12:03;;;;;;;;;;;25.00;53.80;;;;;;5132454;27;19968;-58
2021/07/10 03:14:30;;;;;;;;;;;25.00;53.80;;;;;;5133233;27;19971;-58
2021/07/10 03:16:57;;;;;;;;;;;25.00;53.80;;;;;;5133451;27;20263;-59
2021/07/10 03:19:24;;;;;;;;;;;25.00;53.70;;;;;;5131826;27;20379;-59
2021/07/10 03:21:51;;;;;;;;;;;25.00;53.60;;;;;;5132297;27;20332;-59
2021/07/10 03:24:17;;;;;;;;;;;25.00;53.70;;;;;;5132904;27;19927;-59
2021/07/10 03:26:44;;;;;;;;;;;25.00;53.60;;;;;;5131593;27;19999;-59
2021/07/10 03:29:11;;;;;;;;;;;25.00;53.60;;;;;;5131512;27;19972;-58
2021/07/10 03:31:38;;;;;;;;;;;25.00;53.60;;;;;;5129219;27;19924;-59
2021/07/10 03:34:05;;;;;;;;;;;25.00;53.60;;;;;;5118152;27;19924;-58
2021/07/10 03:36:32;;;;;;;;;;;25.00;53.70;;;;;;5132327;27;19924;-58
2021/07/10 03:38:59;;;;;;;;;;;25.00;53.70;;;;;;5133111;27;19965;-59
2021/07/10 03:41:26;;;;;;;;;;;25.00;53.60;;;;;;5131969;27;19928;-59
2021/07/10 03:43:53;;;;;;;;;;;25.00;53.60;;;;;;5115252;27;19923;-59
2021/07/10 03:46:20;;;;;;;;;;;25.00;53.60;;;;;;5131834;27;19923;-58
2021/07/10 03:48:47;;;;;;;;;;;25.00;53.60;;;;;;5131741;27;19963;-59
2021/07/10 03:51:14;;;;;;;;;;;25.00;53.50;;;;;;5131110;27;19942;-59
2021/07/10 03:53:41;;;;;;;;;;;25.00;53.50;;;;;;5133677;27;19943;-59
2021/07/10 03:56:08;;;;;;;;;;;25.10;53.50;;;;;;5131107;27;19923;-59
2021/07/10 03:58:35;;;;;;;;;;;25.10;53.40;;;;;;5133828;27;19923;-59
2021/07/10 04:01:02;;;;;;;;;;;25.10;53.40;;;;;;5131279;27;19966;-59
2021/07/10 04:03:29;;;;;;;;;;;25.10;53.40;;;;;;5131337;27;20006;-59
2021/07/10 04:05:56;;;;;;;;;;;25.00;53.40;;;;;;5131424;27;19924;-59
2021/07/10 04:08:23;;;;;;;;;;;25.00;53.30;;;;;;5130957;27;19963;-59
2021/07/10 04:10:50;;;;;;;;;;;25.00;53.30;;;;;;5133497;27;20336;-59
2021/07/10 04:13:17;;;;;;;;;;;25.00;53.30;;;;;;5114152;28;19971;-59
2021/07/10 04:15:44;;;;;;;;;;;25.10;53.30;;;;;;5134721;27;19988;-59
2021/07/10 04:18:10;;;;;;;;;;;25.00;53.30;;;;;;5132925;27;20336;-59
2021/07/10 04:20:37;;;;;;;;;;;25.10;53.30;;;;;;5110718;27;19927;-59
2021/07/10 04:23:05;;;;;;;;;;;25.10;53.30;;;;;;5120919;27;19924;-60
2021/07/10 04:25:32;;;;;;;;;;;25.10;53.20;;;;;;5137652;27;19954;-59
2021/07/10 04:27:59;;;;;;;;;;;25.10;53.20;;;;;;5140144;27;19975;-59
2021/07/10 04:30:26;;;;;;;;;;;25.10;53.10;;;;;;5139695;27;19924;-59
2021/07/10 04:32:53;;;;;;;;;;;25.10;53.10;;;;;;5138352;27;20364;-59
2021/07/10 04:35:20;;;;;;;;;;;25.10;53.10;;;;;;5138351;27;19924;-59
2021/07/10 04:37:48;;;;;;;;;;;25.10;53.20;;;;;;5139467;27;20007;-59
2021/07/10 04:40:15;;;;;;;;;;;25.20;53.10;;;;;;5130535;27;19924;-57
2021/07/10 04:42:42;;;;;;;;;;;25.20;53.00;;;;;;5139238;27;19924;-57
2021/07/10 04:45:10;;;;;;;;;;;25.30;53.00;;;;;;5137580;27;19974;-57
2021/07/10 04:47:37;;;;;;;;;;;25.30;52.90;;;;;;5140329;27;19972;-58
2021/07/10 04:50:05;;;;;;;;;;;25.40;52.80;;;;;;5137621;27;19923;-58
2021/07/10 04:52:32;;;;;;;;;;;25.40;52.70;;;;;;5139164;27;19927;-58
2021/07/10 04:54:59;;;;;;;;;;;25.50;52.60;;;;;;5120768;27;20026;-58
2021/07/10 04:57:26;;;;;;;;;;;25.60;52.60;;;;;;5136429;27;19923;-58
2021/07/10 04:59:53;;;;;;;;;;;25.60;52.40;;;;;;5136177;27;19923;-58
2021/07/10 05:02:23;;;;;;;;;;;25.60;52.30;;;;;;5137372;27;19976;-58
2021/07/10 05:04:52;;;;;;;;;;;25.70;52.20;;;;;;5136203;27;20193;-58
2021/07/10 05:07:20;;;;;;;;;;;25.70;52.10;;;;;;5137588;27;19923;-58
2021/07/10 05:09:47;;;;;;;;;;;25.80;52.00;;;;;;5136180;27;19972;-57
2021/07/10 05:12:15;;;;;;;;;;;25.80;51.90;;;;;;5137248;27;19923;-58
2021/07/10 05:14:42;;;;;;;;;;;25.90;51.90;;;;;;5137470;27;19976;-58
2021/07/10 05:17:09;;;;;;;;;;;25.90;51.90;;;;;;5115754;28;19924;-58
2021/07/10 05:19:36;;;;;;;;;;;26.00;51.80;;;;;;5120290;27;19931;-58
2021/07/10 05:22:03;;;;;;;;;;;26.00;51.80;;;;;;5126796;27;19924;-58
2021/07/10 05:24:30;;;;;;;;;;;26.00;51.60;;;;;;5137769;27;19938;-58
2021/07/10 05:26:57;;;;;;;;;;;26.10;51.70;;;;;;5138591;27;19934;-58
2021/07/10 05:29:24;;;;;;;;;;;26.10;51.60;;;;;;5133293;27;19924;-58
2021/07/10 05:31:51;;;;;;;;;;;26.10;51.50;;;;;;5136310;27;19930;-58
2021/07/10 05:34:18;;;;;;;;;;;26.10;52.10;;;;;;5133800;27;19927;-58
2021/07/10 05:36:45;;;;;;;;;;;26.20;52.10;;;;;;5122547;27;19973;-58
2021/07/10 05:39:12;;;;;;;;;;;26.20;51.50;;;;;;5134378;27;19927;-58
2021/07/10 05:41:39;;;;;;;;;;;26.20;51.40;;;;;;5133700;27;19923;-58
2021/07/10 05:44:06;;;;;;;;;;;26.20;51.40;;;;;;5132821;27;19924;-58
2021/07/10 05:46:33;;;;;;;;;;;26.20;51.40;;;;;;5118516;27;19923;-58
2021/07/10 05:49:00;;;;;;;;;;;26.30;51.40;;;;;;5134469;27;20010;-58
2021/07/10 05:51:27;;;;;;;;;;;26.30;51.40;;;;;;5133600;27;20287;-58
2021/07/10 05:53:54;;;;;;;;;;;26.30;51.40;;;;;;5135963;27;20367;-59
2021/07/10 05:56:21;;;;;;;;;;;26.30;51.40;;;;;;5134311;27;20408;-58
2021/07/10 05:58:49;;;;;;;;;;;26.40;51.50;;;;;;5133351;27;19970;-58
2021/07/10 06:01:21;;;;;;;;;;;26.40;51.40;;;;;;5131715;27;19992;-58
2021/07/10 06:03:49;;;;;;;;;;;26.40;51.40;;;;;;5132391;27;19924;-58
2021/07/10 06:06:16;;;;;;;;;;;26.40;51.40;;;;;;5133437;27;19924;-58
2021/07/10 06:08:43;;;;;;;;;;;26.50;51.50;;;;;;5133167;27;20002;-58
2021/07/10 06:11:10;;;;;;;;;;;26.50;51.50;;;;;;5135526;27;19927;-58
2021/07/10 06:13:37;;;;;;;;;;;26.50;51.50;;;;;;5132175;27;19927;-58
2021/07/10 06:16:04;;;;;;;;;;;26.50;51.60;;;;;;5130603;27;19928;-58
2021/07/10 06:18:31;;;;;;;;;;;26.50;51.60;;;;;;5121375;27;19966;-58
2021/07/10 06:20:58;;;;;;;;;;;26.50;51.70;;;;;;5131541;27;19924;-58
2021/07/10 06:23:25;;;;;;;;;;;26.50;51.80;;;;;;5118679;27;19924;-58
2021/07/10 06:25:52;;;;;;;;;;;26.50;51.80;;;;;;5133024;27;19977;-58
2021/07/10 06:28:19;;;;;;;;;;;26.50;51.80;;;;;;5131631;27;19931;-58
2021/07/10 06:30:46;;;;;;;;;;;26.50;51.90;;;;;;5132527;27;19924;-58
2021/07/10 06:33:13;;;;;;;;;;;26.50;51.90;;;;;;5134861;27;20287;-58
2021/07/10 06:35:40;;;;;;;;;;;26.50;52.00;;;;;;5129853;27;19932;-58
2021/07/10 06:38:07;;;;;;;;;;;26.50;52.00;;;;;;5134155;27;19930;-58
2021/07/10 06:40:34;;;;;;;;;;;26.60;52.10;;;;;;5131419;27;19972;-58
2021/07/10 06:43:01;;;;;;;;;;;26.60;52.10;;;;;;5134920;27;19924;-58
2021/07/10 06:45:28;;;;;;;;;;;26.60;52.10;;;;;;5131513;27;19927;-59
2021/07/10 06:47:58;;;;;;;;;;;26.60;52.20;;;;;;5133642;27;19976;-59
2021/07/10 06:50:25;;;;;;;;;;;26.60;52.30;;;;;;5132508;27;19923;-59
2021/07/10 06:52:52;;;;;;;;;;;26.60;52.20;;;;;;5135119;27;20380;-59
2021/07/10 06:55:19;;;;;;;;;;;26.60;52.30;;;;;;5132305;27;20405;-59
2021/07/10 06:57:46;;;;;;;;;;;26.60;52.30;;;;;;5131463;27;19923;-59
2021/07/10 07:00:14;;;;;;;;;;;26.60;52.30;;;;;;5132407;27;19973;-59
2021/07/10 07:02:41;;;;;;;;;;;26.70;52.40;;;;;;5134741;27;19923;-59
2021/07/10 07:05:09;;;;;;;;;;;26.70;52.40;;;;;;5126121;27;19997;-59
2021/07/10 07:07:36;;;;;;;;;;;26.70;52.40;;;;;;5103565;27;19923;-60
2021/07/10 07:10:04;;;;;;;;;;;26.70;52.50;;;;;;5133498;27;19923;-59
2021/07/10 07:12:31;;;;;;;;;;;26.70;52.50;;;;;;5129530;27;19931;-60
2021/07/10 07:14:58;;;;;;;;;;;26.70;52.50;;;;;;5120110;27;19977;-59
2021/07/10 07:17:25;;;;;;;;;;;26.70;52.60;;;;;;5131983;27;19924;-59
2021/07/10 07:19:52;;;;;;;;;;;26.70;52.60;;;;;;5132424;27;19932;-59
2021/07/10 07:22:19;;;;;;;;;;;26.70;52.60;;;;;;5132112;27;19927;-60
2021/07/10 07:24:46;;;;;;;;;;;26.70;52.60;;;;;;5115322;27;19924;-60
2021/07/10 07:27:13;;;;;;;;;;;26.70;52.60;;;;;;5116549;27;19927;-59
2021/07/10 07:29:40;;;;;;;;;;;26.70;52.60;;;;;;5132643;27;19927;-60
2021/07/10 07:32:07;;;;;;;;;;;26.70;52.70;;;;;;5133778;27;20078;-59
2021/07/10 07:34:35;;;;;;;;;;;26.80;52.70;;;;;;5133483;27;19924;-59
2021/07/10 07:37:02;;;;;;;;;;;26.80;52.70;;;;;;5113293;28;19927;-59
2021/07/10 07:39:29;;;;;;;;;;;26.80;52.60;;;;;;5130882;27;19931;-59
2021/07/10 07:41:56;;;;;;;;;;;26.80;52.70;;;;;;5132364;27;19972;-60
2021/07/10 07:44:23;;;;;;;;;;;26.80;52.80;;;;;;5130459;27;19923;-59
2021/07/10 07:46:50;;;;;;;;;;;26.80;52.90;;;;;;5132438;27;20394;-59
2021/07/10 07:49:17;;;;;;;;;;;26.80;52.90;;;;;;5131474;27;19985;-59
2021/07/10 07:51:44;;;;;;;;;;;26.80;52.90;;;;;;5131860;27;19977;-59
2021/07/10 07:54:11;;;;;;;;;;;26.80;53.00;;;;;;5131629;27;19949;-59
2021/07/10 07:56:38;;;;;;;;;;;26.80;52.90;;;;;;5132334;27;19923;-59
2021/07/10 07:59:05;;;;;;;;;;;26.80;53.00;;;;;;5133901;27;19924;-60
2021/07/10 08:01:32;;;;;;;;;;;26.80;53.00;;;;;;5131403;27;19930;-60
2021/07/10 08:04:00;;;;;;;;;;;26.80;53.00;;;;;;5132344;27;19930;-59
2021/07/10 08:06:28;;;;;;;;;;;26.90;53.10;;;;;;5125854;27;19931;-59
2021/07/10 08:08:55;;;;;;;;;;;26.90;53.00;;;;;;5102845;28;19969;-59
2021/07/10 08:11:22;;;;;;;;;;;26.90;53.00;;;;;;5111121;28;19970;-59
2021/07/10 08:13:49;;;;;;;;;;;26.90;53.00;;;;;;5117377;28;20276;-59
2021/07/10 08:16:16;;;;;;;;;;;26.90;53.00;;;;;;5130606;28;20389;-59
2021/07/10 08:18:43;;;;;;;;;;;26.90;53.00;;;;;;5113696;28;20277;-59
2021/07/10 08:21:10;;;;;;;;;;;26.90;53.00;;;;;;5114708;28;19924;-59
2021/07/10 08:23:37;;;;;;;;;;;27.00;52.90;;;;;;5131927;28;20264;-60
2021/07/10 08:26:04;;;;;;;;;;;27.00;52.90;;;;;;5114123;28;19980;-60
2021/07/10 08:28:32;;;;;;;;;;;27.00;52.90;;;;;;5133248;28;19950;-57
2021/07/10 08:30:59;;;;;;;;;;;27.00;52.80;;;;;;5131415;28;19928;-59
2021/07/10 08:33:26;;;;;;;;;;;27.00;52.80;;;;;;5131830;28;19972;-58
2021/07/10 08:35:53;;;;;;;;;;;27.10;52.80;;;;;;5124990;28;19971;-59
2021/07/10 08:38:20;;;;;;;;;;;27.10;53.10;;;;;;5129612;28;19955;-58
2021/07/10 08:40:49;;;;;;;;;;;27.10;52.80;;;;;;5130636;28;20375;-59
2021/07/10 08:43:17;;;;;;;;;;;27.10;52.70;;;;;;5113256;28;19923;-59
2021/07/10 08:45:48;;;;;;;;;;;27.10;52.80;;;;;;5129645;28;19923;-59
2021/07/10 08:48:15;;;;;;;;;;;27.10;52.70;;;;;;5132095;28;19931;-59
2021/07/10 08:50:43;;;;;;;;;;;27.10;52.80;;;;;;5131665;28;19931;-60
2021/07/10 08:53:10;;;;;;;;;;;27.10;52.70;;;;;;5122701;28;19924;-59
2021/07/10 08:55:37;;;;;;;;;;;27.10;52.70;;;;;;5124317;28;19952;-59
2021/07/10 08:58:05;;;;;;;;;;;27.10;52.60;;;;;;5124785;28;20033;-59
2021/07/10 09:00:36;;;;;;;;;;;27.20;52.60;;;;;;5113937;28;19923;-59
2021/07/10 09:03:04;;;;;;;;;;;27.20;52.60;;;;;;5122326;27;19924;-59
2021/07/10 09:05:31;;;;;;;;;;;27.20;52.50;;;;;;5134984;27;19962;-59
2021/07/10 09:08:16;;;;;;;;;;;27.20;52.40;;;;;;5134953;27;19965;-60
2021/07/10 09:10:44;;;;;;;;;;;27.20;52.40;;;;;;5134658;27;19972;-59
2021/07/10 09:13:11;;;;;;;;;;;27.30;52.20;;;;;;5134527;27;19923;-59
2021/07/10 09:15:39;;;;;;;;;;;27.20;52.10;;;;;;5133186;27;19935;-59
2021/07/10 09:18:07;;;;;;;;;;;27.20;52.00;;;;;;5118886;27;19923;-59
2021/07/10 09:20:35;;;;;;;;;;;27.20;52.00;;;;;;5116184;27;19976;-59
2021/07/10 09:23:22;;;;;;;;;;;27.20;51.90;;;;;;5136582;27;19923;-59
2021/07/10 09:25:49;;;;;;;;;;;27.20;51.80;;;;;;5136434;27;19927;-59
2021/07/10 09:28:16;;;;;;;;;;;27.20;51.80;;;;;;5134321;27;19946;-59
2021/07/10 09:30:43;;;;;;;;;;;27.20;52.40;;;;;;5135318;27;19972;-59
2021/07/10 09:33:15;;;;;;;;;;;27.20;51.70;;;;;;5135126;27;20384;-59
2021/07/10 09:35:56;;;;;;;;;;;27.20;51.70;;;;;;5133630;27;19927;-59
2021/07/10 09:38:24;;;;;;;;;;;27.20;51.60;;;;;;5135295;27;19923;-59
2021/07/10 09:41:11;;;;;;;;;;;27.20;51.50;;;;;;5116743;27;20295;-59
2021/07/10 09:43:39;;;;;;;;;;;27.20;51.40;;;;;;5118237;27;19973;-59
2021/07/10 09:46:06;;;;;;;;;;;27.20;51.20;;;;;;5119366;27;19946;-58
2021/07/10 09:48:35;;;;;;;;;;;27.20;51.40;;;;;;5118741;27;19924;-59
2021/07/10 09:51:21;;;;;;;;;;;27.20;51.50;;;;;;5134274;27;19924;-59
2021/07/10 09:54:01;;;;;;;;;;;27.20;51.30;;;;;;5100518;27;19924;-59
2021/07/10 09:56:29;;;;;;;;;;;27.20;51.40;;;;;;5132219;27;20306;-59
2021/07/10 09:58:57;;;;;;;;;;;27.20;51.20;;;;;;5120330;27;19972;-59
2021/07/10 10:01:36;;;;;;;;;;;27.20;51.10;;;;;;5132375;27;19977;-59
2021/07/10 10:04:19;;;;;;;;;;;27.20;50.70;;;;;;5133565;27;19927;-58
2021/07/10 10:06:46;;;;;;;;;;;27.20;50.90;;;;;;5135163;27;19927;-58
2021/07/10 10:09:18;;;;;;;;;;;27.20;50.90;;;;;;5134186;27;19928;-58
2021/07/10 10:11:50;;;;;;;;;;;27.30;50.80;;;;;;5132330;27;20291;-58
2021/07/10 10:14:18;;;;;;;;;;;27.30;50.80;;;;;;5132564;27;19923;-58
2021/07/10 10:16:49;;;;;;;;;;;27.20;50.60;;;;;;5136127;27;19963;-59
2021/07/10 10:19:18;;;;;;;;;;;27.30;50.80;;;;;;5135288;27;19923;-59
2021/07/10 10:21:46;;;;;;;;;;;27.20;50.70;;;;;;5115367;28;19923;-59
2021/07/10 10:24:14;;;;;;;;;;;27.20;50.70;;;;;;5133489;27;19923;-58
2021/07/10 10:26:42;;;;;;;;;;;27.30;50.80;;;;;;5134802;27;19939;-58
2021/07/10 10:29:10;;;;;;;;;;;27.20;50.70;;;;;;5134216;27;20435;-59
2021/07/10 10:31:38;;;;;;;;;;;27.20;50.50;;;;;;5132597;27;19923;-59
2021/07/10 10:34:06;;;;;;;;;;;27.30;50.60;;;;;;5132759;27;19923;-58
2021/07/10 10:36:34;;;;;;;;;;;27.20;50.50;;;;;;5119630;27;19924;-59
2021/07/10 10:39:13;;;;;;;;;;;27.20;50.40;;;;;;5117052;27;19977;-58
2021/07/10 10:41:42;;;;;;;;;;;27.30;50.60;;;;;;5131133;27;19967;-59
2021/07/10 10:44:09;;;;;;;;;;;27.30;50.50;;;;;;5115686;27;19970;-58
2021/07/10 10:46:57;;;;;;;;;;;27.30;50.20;;;;;;5118636;27;19967;-58
2021/07/10 10:49:41;;;;;;;;;;;27.30;50.20;;;;;;5131600;27;19927;-59
2021/07/10 10:52:22;;;;;;;;;;;27.30;50.10;;;;;;5132737;27;19956;-59
2021/07/10 10:55:01;;;;;;;;;;;27.30;50.10;;;;;;5132806;27;19923;-58
2021/07/10 10:57:31;;;;;;;;;;;27.30;50.00;;;;;;5132291;27;19972;-59
2021/07/10 10:59:58;;;;;;;;;;;27.30;50.00;;;;;;5135081;27;19927;-59
2021/07/10 11:02:28;;;;;;;;;;;27.30;49.90;;;;;;5133788;27;19973;-59
2021/07/10 11:04:55;;;;;;;;;;;27.30;49.70;;;;;;5130839;27;19928;-59
2021/07/10 11:07:28;;;;;;;;;;;27.30;49.60;;;;;;5131817;27;19923;-59
2021/07/10 11:10:10;;;;;;;;;;;27.30;49.90;;;;;;5132242;27;19923;-59
2021/07/10 11:12:46;;;;;;;;;;;27.30;49.90;;;;;;5133542;27;20068;-58
2021/07/10 11:15:25;;;;;;;;;;;27.30;49.70;;;;;;5132448;27;19923;-58
2021/07/10 11:18:04;;;;;;;;;;;27.30;49.90;;;;;;5131991;27;20010;-59
2021/07/10 11:20:48;;;;;;;;;;;27.30;49.90;;;;;;5132461;27;20393;-59
2021/07/10 11:23:25;;;;;;;;;;;27.30;49.80;;;;;;5133507;27;20018;-59
2021/07/10 11:25:52;;;;;;;;;;;27.30;49.70;;;;;;5132454;27;19925;-59
2021/07/10 11:28:20;;;;;;;;;;;27.30;49.70;;;;;;5133198;27;19953;-59
2021/07/10 11:30:51;;;;;;;;;;;27.40;49.80;;;;;;5115241;28;19927;-59
2021/07/10 11:33:38;;;;;;;;;;;27.40;49.80;;;;;;5132757;27;19930;-59
2021/07/10 11:36:25;;;;;;;;;;;27.40;49.60;;;;;;5030275;28;19925;-59
2021/07/10 11:38:52;;;;;;;;;;;27.40;49.60;;;;;;5014719;28;20343;-59
2021/07/10 11:41:27;;;;;;;;;;;27.40;49.90;;;;;;5029673;28;19963;-59
2021/07/10 11:44:10;;;;;;;;;;;27.40;49.60;;;;;;5029383;28;19932;-59
2021/07/10 11:46:55;;;;;;;;;;;27.40;49.50;;;;;;5015874;28;19929;-59
2021/07/10 11:49:40;;;;;;;;;;;27.40;49.40;;;;;;5028062;28;20015;-59
2021/07/10 11:52:18;;;;;;;;;;;27.40;49.40;;;;;;5029227;28;19925;-59
2021/07/10 11:54:52;;;;;;;;;;;27.40;50.20;;;;;;5031596;28;19968;-59
2021/07/10 11:57:20;;;;;;;;;;;27.40;49.40;;;;;;5030403;28;19972;-59
2021/07/10 11:59:48;;;;;;;;;;;27.50;49.20;;;;;;5029410;28;19932;-59
2021/07/10 12:02:15;;;;;;;;;;;27.50;49.10;;;;;;5012758;28;20341;-59
2021/07/10 12:05:00;;;;;;;;;;;27.50;48.70;;;;;;5030039;28;19925;-59
2021/07/10 12:07:28;;;;;;;;;;;27.50;48.90;;;;;;5030235;28;19996;-59
2021/07/10 12:09:55;;;;;;;;;;;27.40;48.80;;;;;;5030181;28;20408;-59
2021/07/10 12:12:23;;;;;;;;;;;27.50;48.80;;;;;;5043085;28;20409;-59
2021/07/10 12:14:55;;;;;;;;;;;27.50;48.50;;;;;;5129821;27;20387;-59
2021/07/10 12:17:22;;;;;;;;;;;27.50;48.20;;;;;;5131267;28;19977;-59
2021/07/10 12:19:53;;;;;;;;;;;27.50;48.40;;;;;;5114818;28;20350;-59
2021/07/10 12:22:21;;;;;;;;;;;27.50;48.50;;;;;;5132346;28;19924;-59
2021/07/10 12:24:48;;;;;;;;;;;27.50;48.70;;;;;;5113040;28;19932;-59
2021/07/10 12:27:16;;;;;;;;;;;27.50;48.50;;;;;;5114162;28;20444;-59
2021/07/10 12:29:53;;;;;;;;;;;27.50;48.80;;;;;;5131655;28;19924;-59
2021/07/10 12:32:20;;;;;;;;;;;27.50;48.50;;;;;;5131918;28;19927;-59
2021/07/10 12:34:51;;;;;;;;;;;27.50;48.70;;;;;;5115793;28;19946;-59
2021/07/10 12:37:26;;;;;;;;;;;27.50;48.40;;;;;;5132081;27;19968;-59
2021/07/10 12:40:09;;;;;;;;;;;27.50;48.70;;;;;;5135249;27;19924;-59
2021/07/10 12:42:36;;;;;;;;;;;27.60;49.10;;;;;;5134928;27;19945;-59
2021/07/10 12:45:08;;;;;;;;;;;27.60;49.20;;;;;;5135222;27;19976;-59
2021/07/10 12:47:35;;;;;;;;;;;27.60;49.10;;;;;;5118462;27;20378;-59
2021/07/10 12:50:03;;;;;;;;;;;27.60;49.10;;;;;;5134865;27;19924;-59
2021/07/10 12:52:46;;;;;;;;;;;27.60;49.20;;;;;;5133602;27;19923;-59
2021/07/10 12:55:26;;;;;;;;;;;27.50;49.20;;;;;;5133258;27;20379;-59
2021/07/10 12:57:57;;;;;;;;;;;27.50;49.30;;;;;;5134738;27;19927;-59
2021/07/10 13:00:28;;;;;;;;;;;27.60;49.40;;;;;;5134282;27;19923;-59
2021/07/10 13:02:57;;;;;;;;;;;27.60;49.50;;;;;;5135868;27;19973;-59
2021/07/10 13:05:26;;;;;;;;;;;27.60;49.20;;;;;;5134552;27;19970;-59
2021/07/10 13:08:07;;;;;;;;;;;27.60;49.30;;;;;;5134681;27;19972;-59
2021/07/10 13:10:34;;;;;;;;;;;27.60;49.30;;;;;;5134644;27;20427;-58
2021/07/10 13:13:04;;;;;;;;;;;27.60;49.20;;;;;;5135862;27;20010;-59
2021/07/10 13:15:32;;;;;;;;;;;27.60;49.10;;;;;;5137069;27;20006;-59
2021/07/10 13:18:06;;;;;;;;;;;27.60;49.00;;;;;;5121120;27;19932;-59
2021/07/10 13:20:33;;;;;;;;;;;27.60;48.90;;;;;;5133040;27;20321;-59
2021/07/10 13:23:00;;;;;;;;;;;27.60;48.90;;;;;;5123498;27;20274;-59
2021/07/10 13:25:33;;;;;;;;;;;27.60;48.80;;;;;;5131012;27;19924;-59
2021/07/10 13:28:19;;;;;;;;;;;27.60;49.00;;;;;;5124119;27;19930;-59
2021/07/10 13:30:47;;;;;;;;;;;27.60;49.00;;;;;;5131507;27;20324;-59
2021/07/10 13:33:26;;;;;;;;;;;27.60;49.10;;;;;;5134803;27;20291;-59
2021/07/10 13:36:05;;;;;;;;;;;27.60;49.40;;;;;;5134595;27;19923;-59
2021/07/10 13:38:33;;;;;;;;;;;27.60;49.30;;;;;;5134051;27;20436;-59
2021/07/10 13:41:12;;;;;;;;;;;27.70;48.80;;;;;;5133097;27;19962;-59
2021/07/10 13:43:39;;;;;;;;;;;27.70;48.70;;;;;;5134627;27;20348;-59
2021/07/10 13:46:09;;;;;;;;;;;27.70;48.80;;;;;;5135090;27;19968;-59
2021/07/10 13:48:36;;;;;;;;;;;27.60;48.90;;;;;;5135157;27;19924;-59
2021/07/10 13:51:04;;;;;;;;;;;27.60;48.80;;;;;;5132735;27;19923;-59
2021/07/10 13:53:31;;;;;;;;;;;27.70;48.70;;;;;;5133358;27;19952;-59
2021/07/10 13:56:14;;;;;;;;;;;27.70;48.90;;;;;;5134029;27;20276;-59
2021/07/10 13:58:41;;;;;;;;;;;27.70;48.90;;;;;;5136171;27;19970;-59
2021/07/10 14:01:08;;;;;;;;;;;27.70;48.80;;;;;;5134034;27;20002;-59
2021/07/10 14:03:36;;;;;;;;;;;27.70;49.00;;;;;;5117675;27;19924;-59
2021/07/10 14:06:03;;;;;;;;;;;27.70;48.70;;;;;;5133518;27;19930;-59
2021/07/10 14:08:31;;;;;;;;;;;27.70;48.90;;;;;;5133457;27;19927;-59
2021/07/10 14:10:58;;;;;;;;;;;27.70;48.90;;;;;;5109638;28;19976;-59
2021/07/10 14:13:30;;;;;;;;;;;27.70;49.10;;;;;;5122182;27;19928;-59
2021/07/10 14:15:59;;;;;;;;;;;27.70;49.00;;;;;;5133473;27;19923;-59
2021/07/10 14:18:27;;;;;;;;;;;27.70;49.10;;;;;;5134321;27;19923;-59
2021/07/10 14:20:54;;;;;;;;;;;27.70;49.00;;;;;;5135773;27;19976;-59
2021/07/10 14:23:26;;;;;;;;;;;27.70;48.90;;;;;;5134368;27;20018;-59
2021/07/10 14:25:53;;;;;;;;;;;27.70;48.70;;;;;;5132944;27;20402;-59